createdAt,value
2019-04-04T00:00:40.604Z,46.00
2019-04-04T00:01:48.226Z,46.00
2019-04-04T00:02:55.295Z,45.70
2019-04-04T00:04:02.000Z,45.70
2019-04-04T00:05:08.445Z,45.80
2019-04-04T00:06:14.694Z,46.10
2019-04-04T00:07:21.059Z,46.00
2019-04-04T00:08:31.627Z,46.10
2019-04-04T00:09:38.251Z,46.20
2019-04-04T00:10:44.606Z,46.40
2019-04-04T00:11:51.047Z,46.20
2019-04-04T00:12:57.903Z,46.30
2019-04-04T00:14:05.743Z,46.30
2019-04-04T00:15:14.603Z,46.30
2019-04-04T00:16:20.253Z,46.50
2019-04-04T00:17:26.763Z,46.50
2019-04-04T00:18:33.084Z,46.60
2019-04-04T00:19:39.523Z,46.50
2019-04-04T00:20:45.999Z,46.60
2019-04-04T00:21:52.344Z,46.70
2019-04-04T00:22:58.605Z,46.70
2019-04-04T00:24:05.073Z,46.70
2019-04-04T00:25:11.507Z,46.80
2019-04-04T00:26:18.045Z,46.70
2019-04-04T00:27:24.430Z,47.00
2019-04-04T00:28:30.994Z,47.20
2019-04-04T00:29:37.403Z,47.10
2019-04-04T00:30:43.714Z,47.20
2019-04-04T00:31:50.303Z,47.10
2019-04-04T00:32:57.627Z,47.10
2019-04-04T00:34:04.054Z,47.30
2019-04-04T00:35:11.125Z,47.30
2019-04-04T00:36:17.423Z,47.20
2019-04-04T00:37:23.690Z,47.30
2019-04-04T00:38:30.073Z,47.70
2019-04-04T00:39:37.973Z,47.60
2019-04-04T00:40:44.533Z,47.40
2019-04-04T00:41:50.970Z,47.50
2019-04-04T00:42:58.995Z,47.70
2019-04-04T00:44:05.204Z,47.60
2019-04-04T00:45:12.501Z,47.70
2019-04-04T00:46:18.893Z,47.90
2019-04-04T00:47:25.190Z,47.70
2019-04-04T00:48:32.254Z,47.80
2019-04-04T00:49:39.562Z,47.80
2019-04-04T00:50:46.380Z,47.90
2019-04-04T00:51:52.825Z,47.90
2019-04-04T00:52:59.230Z,47.80
2019-04-04T00:54:05.659Z,48.10
2019-04-04T00:55:12.111Z,48.10
2019-04-04T00:56:18.784Z,48.00
2019-04-04T00:57:25.346Z,47.90
2019-04-04T00:58:31.701Z,48.20
2019-04-04T00:59:38.113Z,48.30
2019-04-04T01:00:44.667Z,48.50
2019-04-04T01:01:51.042Z,48.30
2019-04-04T01:02:58.589Z,48.50
2019-04-04T01:04:05.450Z,48.80
2019-04-04T01:05:12.077Z,48.70
2019-04-04T01:06:18.432Z,48.70
2019-04-04T01:07:24.793Z,48.60
2019-04-04T01:08:31.132Z,48.40
2019-04-04T01:09:37.520Z,48.50
2019-04-04T01:10:44.225Z,48.70
2019-04-04T01:11:51.238Z,48.70
2019-04-04T01:12:58.205Z,49.00
2019-04-04T01:14:05.154Z,49.00
2019-04-04T01:15:11.754Z,49.10
2019-04-04T01:16:18.223Z,49.20
2019-04-04T01:17:25.470Z,49.50
2019-04-04T01:18:31.969Z,49.40
2019-04-04T01:19:38.336Z,49.00
2019-04-04T01:20:44.743Z,49.50
2019-04-04T01:21:53.151Z,49.20
2019-04-04T01:22:59.221Z,49.20
2019-04-04T01:24:05.563Z,49.10
2019-04-04T01:25:12.100Z,49.10
2019-04-04T01:26:18.503Z,49.20
2019-04-04T01:27:24.832Z,49.60
2019-04-04T01:28:31.174Z,49.70
2019-04-04T01:29:39.005Z,49.50
2019-04-04T01:30:45.524Z,49.30
2019-04-04T01:31:51.710Z,49.30
2019-04-04T01:32:58.094Z,49.10
2019-04-04T01:34:04.627Z,49.40
2019-04-04T01:35:11.168Z,49.70
2019-04-04T01:36:17.570Z,49.40
2019-04-04T01:37:26.904Z,49.40
2019-04-04T01:38:32.055Z,49.70
2019-04-04T01:39:38.540Z,49.80
2019-04-04T01:40:44.905Z,49.80
2019-04-04T01:41:51.700Z,49.60
2019-04-04T01:42:57.994Z,49.90
2019-04-04T01:44:05.470Z,49.80
2019-04-04T01:45:13.200Z,50.10
2019-04-04T01:46:20.266Z,50.00
2019-04-04T01:47:26.629Z,49.90
2019-04-04T01:48:32.828Z,50.10
2019-04-04T01:49:39.141Z,50.00
2019-04-04T01:50:45.486Z,50.50
2019-04-04T01:51:51.925Z,49.90
2019-04-04T01:52:59.275Z,49.90
2019-04-04T01:54:06.472Z,50.00
2019-04-04T01:55:12.814Z,50.20
2019-04-04T01:56:19.213Z,50.40
2019-04-04T01:57:25.563Z,50.70
2019-04-04T01:58:31.952Z,50.50
2019-04-04T01:59:38.333Z,50.10
2019-04-04T02:00:45.922Z,50.30
2019-04-04T02:01:52.400Z,50.40
2019-04-04T02:02:58.679Z,50.40
2019-04-04T02:04:05.083Z,50.30
2019-04-04T02:05:11.664Z,50.40
2019-04-04T02:06:18.180Z,50.60
2019-04-04T02:07:24.485Z,50.30
2019-04-04T02:08:31.625Z,50.30
2019-04-04T02:09:38.565Z,50.40
2019-04-04T02:10:45.138Z,50.60
2019-04-04T02:11:51.750Z,51.00
2019-04-04T02:12:58.090Z,50.60
2019-04-04T02:14:04.363Z,50.60
2019-04-04T02:15:13.940Z,50.60
2019-04-04T02:16:19.266Z,50.70
2019-04-04T02:17:25.662Z,50.70
2019-04-04T02:18:33.079Z,51.00
2019-04-04T02:19:39.425Z,51.00
2019-04-04T02:20:45.813Z,51.10
2019-04-04T02:21:52.420Z,51.30
2019-04-04T02:23:01.172Z,51.00
2019-04-04T02:24:06.820Z,50.90
2019-04-04T02:25:13.043Z,51.40
2019-04-04T02:26:19.524Z,51.30
2019-04-04T02:27:25.833Z,51.20
2019-04-04T02:28:32.249Z,51.10
2019-04-04T02:29:39.895Z,51.30
2019-04-04T02:30:48.662Z,51.40
2019-04-04T02:31:57.980Z,51.60
2019-04-04T02:33:04.305Z,51.80
2019-04-04T02:34:10.649Z,51.40
2019-04-04T02:35:16.993Z,51.60
2019-04-04T02:36:23.345Z,51.80
2019-04-04T02:37:29.720Z,51.90
2019-04-04T02:38:36.206Z,51.90
2019-04-04T02:39:42.405Z,51.60
2019-04-04T02:40:48.682Z,51.50
2019-04-04T02:41:54.913Z,51.90
2019-04-04T02:43:01.622Z,52.20
2019-04-04T02:44:08.430Z,52.00
2019-04-04T02:45:14.902Z,52.10
2019-04-04T02:46:21.426Z,51.90
2019-04-04T02:47:27.785Z,52.60
2019-04-04T02:48:34.393Z,51.60
2019-04-04T02:49:40.734Z,51.90
2019-04-04T02:50:47.028Z,51.70
2019-04-04T02:51:53.304Z,51.80
2019-04-04T02:52:59.729Z,52.20
2019-04-04T02:54:07.426Z,52.50
2019-04-04T02:55:13.870Z,52.60
2019-04-04T02:56:20.374Z,52.70
2019-04-04T02:57:26.736Z,52.50
2019-04-04T02:58:33.125Z,52.40
2019-04-04T02:59:39.416Z,52.40
2019-04-04T03:00:45.908Z,52.40
2019-04-04T03:01:53.235Z,52.70
2019-04-04T03:02:59.608Z,52.90
2019-04-04T03:04:06.153Z,52.80
2019-04-04T03:05:12.596Z,52.80
2019-04-04T03:06:19.010Z,52.70
2019-04-04T03:07:29.772Z,52.60
2019-04-04T03:08:36.748Z,52.60
2019-04-04T03:09:43.440Z,52.60
2019-04-04T03:10:50.039Z,52.50
2019-04-04T03:11:56.569Z,52.60
2019-04-04T03:13:03.060Z,52.70
2019-04-04T03:14:09.925Z,52.80
2019-04-04T03:15:16.462Z,52.80
2019-04-04T03:16:22.995Z,53.10
2019-04-04T03:17:32.631Z,53.20
2019-04-04T03:18:38.105Z,52.90
2019-04-04T03:19:44.690Z,53.00
2019-04-04T03:20:52.124Z,53.30
2019-04-04T03:21:58.371Z,53.10
2019-04-04T03:23:04.842Z,53.10
2019-04-04T03:24:11.255Z,53.40
2019-04-04T03:25:17.494Z,53.20
2019-04-04T03:26:23.766Z,53.10
2019-04-04T03:27:30.159Z,53.10
2019-04-04T03:28:36.515Z,53.10
2019-04-04T03:29:42.714Z,53.10
2019-04-04T03:31:00.826Z,53.10
2019-04-04T03:31:57.222Z,53.00
2019-04-04T03:33:03.805Z,53.30
2019-04-04T03:34:12.489Z,53.00
2019-04-04T03:35:26.000Z,53.00
2019-04-04T03:36:26.044Z,53.10
2019-04-04T03:37:32.467Z,53.90
2019-04-04T03:38:38.812Z,53.50
2019-04-04T03:39:45.192Z,53.90
2019-04-04T03:40:51.522Z,53.90
2019-04-04T03:41:58.035Z,53.40
2019-04-04T03:43:04.522Z,53.30
2019-04-04T03:44:10.775Z,53.50
2019-04-04T03:45:17.165Z,53.80
2019-04-04T03:46:23.566Z,53.80
2019-04-04T03:47:30.000Z,54.00
2019-04-04T03:48:36.316Z,53.80
2019-04-04T03:49:42.679Z,54.10
2019-04-04T03:50:49.072Z,54.30
2019-04-04T03:51:55.320Z,54.20
2019-04-04T03:53:01.815Z,54.10
2019-04-04T03:54:23.302Z,53.70
2019-04-04T03:55:29.722Z,53.80
2019-04-04T03:56:39.253Z,53.80
2019-04-04T03:57:46.146Z,53.80
2019-04-04T03:58:52.661Z,53.70
2019-04-04T04:00:00.074Z,53.80
2019-04-04T04:01:06.413Z,54.40
2019-04-04T04:02:12.765Z,53.80
2019-04-04T04:03:22.719Z,53.80
2019-04-04T04:04:28.483Z,54.00
2019-04-04T04:05:36.700Z,54.00
2019-04-04T04:06:43.232Z,54.40
2019-04-04T04:07:49.594Z,54.30
2019-04-04T04:08:55.957Z,54.40
2019-04-04T04:10:02.626Z,54.40
2019-04-04T04:11:08.957Z,54.40
2019-04-04T04:12:15.425Z,54.30
2019-04-04T04:13:21.881Z,54.60
2019-04-04T04:14:28.173Z,54.60
2019-04-04T04:15:34.608Z,54.80
2019-04-04T04:16:40.902Z,55.00
2019-04-04T04:17:47.329Z,54.80
2019-04-04T04:18:54.513Z,54.90
2019-04-04T04:20:04.169Z,54.80
2019-04-04T04:21:11.068Z,55.00
2019-04-04T04:22:19.353Z,54.70
2019-04-04T04:23:27.054Z,54.60
2019-04-04T04:24:33.430Z,54.90
2019-04-04T04:25:39.884Z,55.10
2019-04-04T04:26:46.282Z,54.90
2019-04-04T04:27:52.886Z,54.90
2019-04-04T04:28:59.380Z,55.00
2019-04-04T04:30:07.492Z,55.20
2019-04-04T04:31:15.608Z,55.30
2019-04-04T04:32:22.797Z,55.20
2019-04-04T04:33:30.012Z,55.50
2019-04-04T04:34:36.571Z,55.60
2019-04-04T04:35:42.779Z,55.60
2019-04-04T04:36:48.964Z,55.70
2019-04-04T04:37:55.244Z,55.50
2019-04-04T04:39:01.518Z,55.60
2019-04-04T04:40:13.785Z,55.40
2019-04-04T04:41:19.907Z,56.20
2019-04-04T04:42:26.564Z,55.40
2019-04-04T04:43:33.789Z,55.40
2019-04-04T04:44:40.355Z,55.60
2019-04-04T04:45:46.880Z,56.00
2019-04-04T04:46:53.225Z,55.90
2019-04-04T04:47:59.608Z,55.90
2019-04-04T04:49:06.124Z,55.50
2019-04-04T04:50:12.685Z,55.40
2019-04-04T04:51:19.167Z,55.70
2019-04-04T04:52:25.831Z,56.00
2019-04-04T04:53:32.384Z,56.00
2019-04-04T04:54:38.720Z,56.30
2019-04-04T04:55:45.632Z,56.10
2019-04-04T04:56:52.045Z,56.00
2019-04-04T04:57:58.419Z,56.10
2019-04-04T04:59:04.922Z,55.70
2019-04-04T05:00:11.550Z,55.50
2019-04-04T05:01:18.381Z,55.90
2019-04-04T05:02:26.724Z,55.90
2019-04-04T05:03:33.068Z,55.80
2019-04-04T05:04:39.500Z,55.60
2019-04-04T05:05:45.751Z,55.80
2019-04-04T05:06:52.164Z,56.00
2019-04-04T05:07:58.633Z,56.00
2019-04-04T05:09:05.790Z,56.50
2019-04-04T05:10:12.932Z,56.40
2019-04-04T05:11:20.751Z,55.70
2019-04-04T05:12:27.326Z,55.40
2019-04-04T05:13:33.754Z,55.60
2019-04-04T05:14:40.114Z,55.60
2019-04-04T05:15:46.613Z,55.50
2019-04-04T05:16:53.009Z,55.50
2019-04-04T05:17:59.505Z,55.60
2019-04-04T05:19:06.025Z,55.40
2019-04-04T05:20:12.603Z,55.70
2019-04-04T05:21:24.778Z,55.70
2019-04-04T05:22:26.815Z,55.60
2019-04-04T05:23:33.316Z,55.60
2019-04-04T05:24:39.740Z,55.80
2019-04-04T05:25:53.709Z,55.60
2019-04-04T05:26:54.026Z,55.60
2019-04-04T05:28:00.528Z,55.60
2019-04-04T05:29:07.148Z,55.70
2019-04-04T05:30:15.918Z,55.80
2019-04-04T05:31:21.575Z,55.90
2019-04-04T05:32:28.167Z,55.50
2019-04-04T05:33:35.648Z,56.20
2019-04-04T05:34:42.084Z,56.30
2019-04-04T05:35:48.430Z,56.30
2019-04-04T05:36:54.698Z,56.50
2019-04-04T05:38:02.071Z,55.80
2019-04-04T05:39:09.389Z,55.80
2019-04-04T05:40:16.191Z,55.80
2019-04-04T05:41:22.651Z,55.50
2019-04-04T05:42:29.029Z,55.60
2019-04-04T05:43:37.434Z,55.50
2019-04-04T05:44:43.459Z,55.90
2019-04-04T05:45:49.814Z,56.00
2019-04-04T05:46:56.156Z,56.40
2019-04-04T05:48:02.537Z,55.70
2019-04-04T05:49:08.911Z,55.60
2019-04-04T05:50:16.550Z,55.40
2019-04-04T05:51:23.257Z,55.30
2019-04-04T05:52:32.286Z,55.60
2019-04-04T05:53:37.611Z,55.80
2019-04-04T05:54:43.866Z,56.40
2019-04-04T05:55:50.301Z,56.20
2019-04-04T05:56:56.770Z,55.80
2019-04-04T05:58:03.084Z,56.10
2019-04-04T05:59:09.473Z,55.80
2019-04-04T06:00:16.144Z,55.40
2019-04-04T06:01:22.640Z,55.50
2019-04-04T06:02:29.062Z,55.40
2019-04-04T06:03:35.520Z,55.40
2019-04-04T06:04:41.932Z,55.30
2019-04-04T06:05:48.363Z,55.50
2019-04-04T06:06:55.774Z,55.30
2019-04-04T06:08:02.265Z,55.10
2019-04-04T06:09:10.170Z,55.10
2019-04-04T06:10:18.588Z,55.00
2019-04-04T06:11:24.572Z,55.00
2019-04-04T06:12:30.952Z,55.20
2019-04-04T06:13:37.311Z,55.20
2019-04-04T06:14:46.043Z,55.20
2019-04-04T06:15:52.338Z,55.70
2019-04-04T06:16:58.749Z,55.10
2019-04-04T06:18:05.119Z,55.20
2019-04-04T06:19:14.066Z,54.90
2019-04-04T06:20:19.609Z,54.60
2019-04-04T06:21:25.966Z,55.00
2019-04-04T06:22:32.331Z,55.40
2019-04-04T06:23:40.162Z,55.30
2019-04-04T06:24:46.601Z,55.40
2019-04-04T06:25:53.083Z,54.80
2019-04-04T06:26:59.531Z,54.90
2019-04-04T06:28:06.142Z,54.40
2019-04-04T06:29:12.596Z,54.30
2019-04-04T06:30:20.234Z,54.50
2019-04-04T06:31:30.505Z,54.80
2019-04-04T06:32:34.800Z,54.50
2019-04-04T06:33:41.874Z,54.60
2019-04-04T06:34:48.285Z,54.30
2019-04-04T06:35:54.658Z,54.30
2019-04-04T06:37:02.284Z,54.70
2019-04-04T06:38:08.616Z,54.50
2019-04-04T06:39:15.046Z,54.30
2019-04-04T06:40:21.563Z,54.20
2019-04-04T06:41:28.428Z,54.10
2019-04-04T06:42:36.988Z,54.60
2019-04-04T06:43:43.719Z,54.80
2019-04-04T06:44:49.875Z,54.10
2019-04-04T06:45:56.027Z,54.50
2019-04-04T06:47:02.386Z,54.00
2019-04-04T06:48:08.748Z,54.00
2019-04-04T06:49:15.274Z,53.80
2019-04-04T06:50:21.655Z,53.70
2019-04-04T06:51:28.151Z,53.80
2019-04-04T06:52:34.486Z,53.70
2019-04-04T06:53:40.982Z,54.20
2019-04-04T06:54:47.293Z,54.30
2019-04-04T06:55:53.626Z,53.90
2019-04-04T06:57:03.517Z,53.90
2019-04-04T06:58:09.349Z,54.30
2019-04-04T06:59:16.247Z,53.80
2019-04-04T07:00:22.692Z,54.10
2019-04-04T07:01:28.961Z,53.70
2019-04-04T07:02:35.507Z,53.50
2019-04-04T07:03:42.242Z,54.50
2019-04-04T07:04:48.812Z,53.60
2019-04-04T07:05:55.134Z,53.30
2019-04-04T07:07:01.465Z,53.40
2019-04-04T07:08:07.905Z,53.50
2019-04-04T07:09:14.112Z,53.70
2019-04-04T07:10:21.868Z,53.30
2019-04-04T07:11:28.506Z,53.80
2019-04-04T07:12:37.791Z,53.00
2019-04-04T07:13:43.079Z,52.90
2019-04-04T07:14:49.624Z,53.00
2019-04-04T07:16:06.886Z,53.20
2019-04-04T07:17:09.379Z,52.90
2019-04-04T07:18:16.087Z,52.80
2019-04-04T07:19:22.389Z,52.70
2019-04-04T07:20:28.825Z,53.40
2019-04-04T07:21:35.194Z,52.70
2019-04-04T07:22:41.587Z,52.50
2019-04-04T07:23:48.768Z,52.50
2019-04-04T07:24:55.212Z,52.20
2019-04-04T07:26:02.354Z,52.30
2019-04-04T07:27:08.848Z,52.10
2019-04-04T07:28:16.864Z,52.10
2019-04-04T07:29:25.327Z,52.20
2019-04-04T07:30:32.677Z,51.70
2019-04-04T07:31:39.047Z,51.80
2019-04-04T07:32:45.383Z,51.60
2019-04-04T07:33:51.832Z,52.20
2019-04-04T07:34:58.106Z,52.20
2019-04-04T07:36:04.739Z,51.90
2019-04-04T07:37:11.120Z,51.80
2019-04-04T07:38:19.304Z,52.20
2019-04-04T07:39:26.031Z,53.10
2019-04-04T07:40:32.256Z,53.00
2019-04-04T07:41:40.749Z,52.10
2019-04-04T07:42:47.936Z,51.60
2019-04-04T07:43:54.596Z,51.30
2019-04-04T07:45:00.941Z,51.40
2019-04-04T07:46:16.197Z,52.70
2019-04-04T07:47:16.150Z,51.90
2019-04-04T07:48:23.308Z,51.70
2019-04-04T07:49:29.599Z,51.70
2019-04-04T07:50:35.924Z,51.50
2019-04-04T07:51:42.499Z,51.60
2019-04-04T07:52:48.944Z,52.10
2019-04-04T07:53:55.495Z,52.10
2019-04-04T07:55:02.070Z,51.50
2019-04-04T07:56:09.428Z,51.00
2019-04-04T07:57:17.294Z,51.70
2019-04-04T07:58:24.963Z,51.20
2019-04-04T07:59:31.346Z,51.30
2019-04-04T08:00:37.774Z,51.50
2019-04-04T08:01:50.972Z,51.10
2019-04-04T08:02:52.291Z,51.00
2019-04-04T08:03:58.875Z,51.20
2019-04-04T08:05:05.979Z,51.40
2019-04-04T08:06:12.589Z,51.40
2019-04-04T08:07:18.946Z,51.60
2019-04-04T08:08:25.403Z,52.00
2019-04-04T08:09:31.965Z,52.30
2019-04-04T08:10:38.918Z,51.90
2019-04-04T08:11:45.481Z,51.90
2019-04-04T08:12:51.944Z,51.80
2019-04-04T08:13:58.521Z,51.30
2019-04-04T08:15:05.282Z,50.90
2019-04-04T08:16:11.728Z,50.40
2019-04-04T08:17:19.068Z,49.10
2019-04-04T08:18:25.674Z,48.00
2019-04-04T08:19:32.263Z,46.90
2019-04-04T08:20:38.669Z,45.80
2019-04-04T08:21:45.122Z,45.00
2019-04-04T08:22:51.511Z,44.20
2019-04-04T08:23:58.760Z,42.80
2019-04-04T08:25:05.504Z,41.20
2019-04-04T08:26:12.213Z,40.40
2019-04-04T08:27:18.774Z,40.30
2019-04-04T08:28:25.098Z,39.30
2019-04-04T08:29:31.692Z,39.70
2019-04-04T08:30:38.111Z,41.00
2019-04-04T08:31:44.803Z,42.00
2019-04-04T08:32:51.571Z,42.20
2019-04-04T08:33:57.930Z,42.70
2019-04-04T08:35:04.728Z,42.00
2019-04-04T08:36:11.130Z,41.40
2019-04-04T08:37:17.672Z,40.50
2019-04-04T08:38:23.974Z,39.20
2019-04-04T08:39:30.310Z,38.70
2019-04-04T08:40:36.846Z,38.00
2019-04-04T08:41:43.348Z,37.20
2019-04-04T08:42:49.787Z,36.80
2019-04-04T08:43:56.140Z,36.30
2019-04-04T08:45:02.594Z,35.90
2019-04-04T08:46:08.972Z,35.80
2019-04-04T08:47:15.466Z,34.40
2019-04-04T08:48:21.882Z,34.00
2019-04-04T08:49:28.390Z,33.90
2019-04-04T08:50:35.009Z,33.70
2019-04-04T08:51:41.513Z,33.20
2019-04-04T08:52:47.904Z,32.90
2019-04-04T08:53:54.346Z,32.90
2019-04-04T08:55:00.711Z,33.40
2019-04-04T08:56:06.971Z,32.60
2019-04-04T08:57:13.264Z,32.10
2019-04-04T08:58:19.647Z,32.10
2019-04-04T08:59:26.125Z,31.10
2019-04-04T09:00:32.622Z,30.50
2019-04-04T09:01:39.091Z,30.30
2019-04-04T09:02:45.789Z,30.10
2019-04-04T09:03:52.080Z,30.60
2019-04-04T09:05:10.901Z,31.60
2019-04-04T09:06:06.616Z,30.80
2019-04-04T09:07:13.104Z,31.00
2019-04-04T09:08:19.515Z,31.10
2019-04-04T09:09:27.028Z,31.20
2019-04-04T09:10:33.707Z,31.40
2019-04-04T09:11:40.013Z,31.40
2019-04-04T09:12:46.403Z,31.20
2019-04-04T09:13:52.800Z,30.40
2019-04-04T09:14:59.284Z,28.80
2019-04-04T09:16:05.751Z,29.30
2019-04-04T09:17:12.153Z,28.60
2019-04-04T09:18:18.566Z,28.50
2019-04-04T09:19:25.300Z,28.30
2019-04-04T09:20:31.605Z,28.50
2019-04-04T09:21:37.853Z,27.90
2019-04-04T09:22:44.227Z,27.90
2019-04-04T09:23:50.693Z,28.50
2019-04-04T09:24:57.001Z,28.90
2019-04-04T09:26:05.754Z,28.70
2019-04-04T09:27:11.311Z,28.30
2019-04-04T09:28:17.738Z,28.30
2019-04-04T09:29:25.669Z,27.90
2019-04-04T09:30:32.000Z,27.90
2019-04-04T09:31:39.161Z,29.20
2019-04-04T09:32:45.463Z,29.30
2019-04-04T09:33:51.926Z,28.80
2019-04-04T09:34:58.508Z,28.70
2019-04-04T09:36:04.972Z,27.90
2019-04-04T09:37:11.566Z,27.90
2019-04-04T09:38:17.975Z,28.20
2019-04-04T09:39:24.372Z,29.30
2019-04-04T09:40:30.732Z,30.30
2019-04-04T09:41:37.195Z,31.80
2019-04-04T09:42:43.862Z,32.20
2019-04-04T09:43:50.352Z,33.50
2019-04-04T09:44:56.826Z,34.50
2019-04-04T09:46:03.195Z,34.80
2019-04-04T09:47:09.572Z,35.50
2019-04-04T09:48:15.922Z,36.20
2019-04-04T09:49:22.238Z,36.70
2019-04-04T09:50:28.674Z,36.30
2019-04-04T09:51:35.086Z,36.60
2019-04-04T09:52:41.414Z,37.50
2019-04-04T09:53:53.190Z,37.50
2019-04-04T09:54:55.836Z,36.90
2019-04-04T09:56:02.050Z,38.10
2019-04-04T09:57:08.526Z,38.60
2019-04-04T09:58:14.935Z,38.70
2019-04-04T09:59:21.395Z,38.20
2019-04-04T10:00:27.894Z,38.00
2019-04-04T10:01:34.330Z,38.10
2019-04-04T10:02:40.705Z,38.70
2019-04-04T10:03:47.059Z,39.40
2019-04-04T10:04:53.486Z,39.20
2019-04-04T10:06:00.078Z,39.30
2019-04-04T10:07:06.503Z,39.70
2019-04-04T10:08:12.903Z,39.80
2019-04-04T10:09:19.420Z,40.40
2019-04-04T10:10:25.884Z,40.50
2019-04-04T10:11:32.275Z,40.60
2019-04-04T10:12:39.135Z,40.70
2019-04-04T10:13:45.558Z,40.30
2019-04-04T10:14:52.017Z,40.30
2019-04-04T10:15:58.607Z,40.50
2019-04-04T10:17:05.292Z,40.60
2019-04-04T10:18:11.700Z,40.90
2019-04-04T10:19:18.055Z,41.00
2019-04-04T10:20:24.415Z,41.20
2019-04-04T10:21:30.995Z,41.30
2019-04-04T10:22:37.398Z,41.70
2019-04-04T10:23:44.062Z,41.70
2019-04-04T10:24:50.286Z,41.70
2019-04-04T10:25:56.682Z,41.70
2019-04-04T10:27:03.101Z,41.10
2019-04-04T10:28:09.742Z,41.30
2019-04-04T10:29:15.986Z,40.70
2019-04-04T10:30:23.105Z,41.00
2019-04-04T10:31:29.384Z,41.40
2019-04-04T10:32:35.762Z,41.30
2019-04-04T10:33:42.532Z,41.40
2019-04-04T10:34:49.058Z,41.50
2019-04-04T10:35:55.433Z,42.70
2019-04-04T10:37:01.783Z,41.00
2019-04-04T10:38:08.362Z,40.00
2019-04-04T10:39:27.927Z,40.00
2019-04-04T10:40:22.921Z,40.00
2019-04-04T10:41:29.273Z,40.30
2019-04-04T10:42:35.765Z,40.60
2019-04-04T10:43:42.202Z,38.10
2019-04-04T10:44:48.486Z,35.20
2019-04-04T10:45:54.911Z,33.60
2019-04-04T10:47:01.354Z,32.70
2019-04-04T10:48:07.845Z,31.10
2019-04-04T10:49:14.363Z,30.50
2019-04-04T10:50:20.757Z,29.80
2019-04-04T10:51:27.431Z,29.20
2019-04-04T10:52:35.020Z,29.50
2019-04-04T10:53:42.614Z,29.60
2019-04-04T10:54:49.048Z,29.10
2019-04-04T10:55:55.475Z,28.20
2019-04-04T10:57:02.083Z,27.90
2019-04-04T10:58:08.574Z,28.60
2019-04-04T10:59:14.975Z,28.10
2019-04-04T11:00:21.923Z,27.80
2019-04-04T11:01:28.464Z,27.40
2019-04-04T11:02:34.861Z,28.00
2019-04-04T11:03:41.438Z,28.00
2019-04-04T11:04:47.935Z,27.80
2019-04-04T11:05:54.389Z,26.60
2019-04-04T11:07:00.652Z,26.60
2019-04-04T11:08:06.929Z,27.60
2019-04-04T11:09:13.686Z,28.10
2019-04-04T11:10:20.189Z,27.80
2019-04-04T11:11:26.630Z,27.70
2019-04-04T11:12:34.430Z,27.20
2019-04-04T11:13:41.091Z,27.10
2019-04-04T11:14:47.523Z,27.30
2019-04-04T11:15:53.915Z,26.60
2019-04-04T11:17:00.563Z,26.00
2019-04-04T11:18:06.903Z,26.20
2019-04-04T11:19:13.253Z,26.70
2019-04-04T11:20:19.652Z,25.90
2019-04-04T11:21:26.290Z,25.80
2019-04-04T11:22:32.700Z,26.50
2019-04-04T11:23:39.073Z,26.60
2019-04-04T11:24:45.532Z,26.30
2019-04-04T11:25:51.936Z,26.00
2019-04-04T11:26:58.260Z,26.20
2019-04-04T11:28:04.621Z,26.10
2019-04-04T11:29:12.192Z,25.70
2019-04-04T11:30:18.974Z,26.20
2019-04-04T11:31:25.450Z,27.20
2019-04-04T11:32:31.893Z,26.40
2019-04-04T11:33:38.387Z,26.30
2019-04-04T11:34:53.054Z,24.80
2019-04-04T11:35:52.963Z,24.60
2019-04-04T11:36:59.556Z,24.40
2019-04-04T11:38:06.154Z,24.90
2019-04-04T11:39:12.667Z,24.70
2019-04-04T11:40:19.112Z,24.80
2019-04-04T11:41:26.543Z,25.20
2019-04-04T11:42:33.077Z,25.10
2019-04-04T11:43:39.503Z,24.70
2019-04-04T11:44:45.691Z,25.20
2019-04-04T11:45:51.816Z,25.00
2019-04-04T11:46:58.262Z,25.30
2019-04-04T11:48:04.552Z,25.20
2019-04-04T11:49:10.811Z,25.40
2019-04-04T11:50:17.202Z,25.10
2019-04-04T11:51:23.655Z,25.50
2019-04-04T11:52:30.096Z,26.70
2019-04-04T11:53:36.384Z,26.10
2019-04-04T11:54:59.481Z,27.10
2019-04-04T11:56:06.163Z,28.10
2019-04-04T11:57:12.555Z,28.50
2019-04-04T11:58:19.070Z,27.60
2019-04-04T11:59:25.432Z,26.40
2019-04-04T12:00:34.644Z,26.50
2019-04-04T12:01:42.283Z,26.70
2019-04-04T12:02:48.746Z,26.80
2019-04-04T12:03:55.363Z,27.10
2019-04-04T12:05:01.941Z,26.30
2019-04-04T12:06:08.301Z,26.50
2019-04-04T12:07:14.601Z,26.80
2019-04-04T12:08:20.939Z,27.20
2019-04-04T12:09:27.486Z,27.20
2019-04-04T12:10:33.931Z,26.60
2019-04-04T12:11:40.242Z,26.90
2019-04-04T12:12:46.800Z,27.50
2019-04-04T12:13:53.221Z,27.00
2019-04-04T12:14:59.907Z,26.30
2019-04-04T12:16:06.272Z,26.30
2019-04-04T12:17:12.720Z,26.40
2019-04-04T12:18:19.190Z,26.30
2019-04-04T12:19:25.634Z,25.90
2019-04-04T12:20:32.024Z,25.60
2019-04-04T12:21:38.482Z,25.50
2019-04-04T12:22:45.215Z,25.00
2019-04-04T12:23:51.720Z,25.30
2019-04-04T12:24:59.197Z,26.00
2019-04-04T12:26:05.742Z,26.30
2019-04-04T12:27:12.150Z,26.10
2019-04-04T12:28:18.698Z,25.60
2019-04-04T12:29:25.080Z,25.70
2019-04-04T12:30:31.542Z,26.00
2019-04-04T12:31:37.904Z,25.90
2019-04-04T12:32:44.254Z,26.40
2019-04-04T12:33:50.613Z,26.80
2019-04-04T12:34:57.018Z,26.90
2019-04-04T12:36:03.442Z,26.40
2019-04-04T12:37:10.701Z,26.50
2019-04-04T12:38:17.150Z,27.30
2019-04-04T12:39:23.644Z,26.30
2019-04-04T12:40:30.064Z,25.80
2019-04-04T12:41:36.544Z,26.30
2019-04-04T12:42:43.023Z,26.30
2019-04-04T12:43:49.458Z,26.50
2019-04-04T12:44:55.826Z,26.40
2019-04-04T12:46:02.406Z,26.10
2019-04-04T12:47:08.842Z,26.40
2019-04-04T12:48:15.273Z,25.40
2019-04-04T12:49:21.849Z,25.00
2019-04-04T12:50:28.263Z,25.30
2019-04-04T12:51:36.215Z,25.50
2019-04-04T12:52:42.762Z,25.70
2019-04-04T12:53:49.245Z,26.60
2019-04-04T12:54:55.645Z,26.60
2019-04-04T12:56:03.126Z,26.70
2019-04-04T12:57:09.580Z,26.90
2019-04-04T12:58:16.084Z,26.70
2019-04-04T12:59:22.582Z,26.50
2019-04-04T13:00:29.004Z,26.50
2019-04-04T13:01:35.396Z,26.80
2019-04-04T13:02:41.719Z,27.40
2019-04-04T13:03:48.279Z,27.00
2019-04-04T13:04:54.888Z,26.90
2019-04-04T13:06:01.270Z,27.10
2019-04-04T13:07:07.596Z,27.70
2019-04-04T13:08:13.973Z,28.40
2019-04-04T13:09:20.501Z,28.50
2019-04-04T13:10:32.982Z,28.60
2019-04-04T13:11:34.886Z,28.40
2019-04-04T13:12:41.495Z,28.70
2019-04-04T13:13:48.203Z,28.90
2019-04-04T13:14:55.493Z,28.90
2019-04-04T13:16:02.258Z,29.40
2019-04-04T13:17:08.840Z,29.50
2019-04-04T13:18:15.374Z,29.20
2019-04-04T13:19:22.159Z,29.20
2019-04-04T13:20:28.664Z,29.40
2019-04-04T13:21:35.224Z,29.50
2019-04-04T13:22:41.592Z,29.60
2019-04-04T13:23:49.347Z,29.90
2019-04-04T13:24:55.931Z,30.20
2019-04-04T13:26:02.232Z,30.90
2019-04-04T13:27:08.971Z,31.20
2019-04-04T13:28:15.365Z,32.40
2019-04-04T13:29:21.671Z,32.60
2019-04-04T13:30:28.054Z,33.40
2019-04-04T13:31:34.479Z,33.60
2019-04-04T13:32:41.215Z,33.70
2019-04-04T13:33:47.755Z,33.40
2019-04-04T13:34:59.510Z,33.20
2019-04-04T13:36:02.090Z,32.80
2019-04-04T13:37:08.594Z,33.70
2019-04-04T13:38:16.241Z,33.90
2019-04-04T13:39:23.224Z,34.70
2019-04-04T13:40:29.704Z,35.30
2019-04-04T13:41:36.239Z,35.60
2019-04-04T13:42:42.745Z,35.60
2019-04-04T13:43:49.146Z,35.90
2019-04-04T13:44:55.590Z,36.10
2019-04-04T13:46:02.290Z,36.40
2019-04-04T13:47:08.876Z,36.20
2019-04-04T13:48:15.472Z,36.70
2019-04-04T13:49:22.467Z,36.80
2019-04-04T13:50:29.268Z,37.20
2019-04-04T13:51:35.788Z,36.90
2019-04-04T13:52:42.138Z,37.80
2019-04-04T13:53:48.867Z,37.20
2019-04-04T13:54:55.910Z,36.10
2019-04-04T13:56:03.471Z,35.90
2019-04-04T13:57:10.012Z,35.80
2019-04-04T13:58:17.595Z,35.40
2019-04-04T13:59:25.533Z,35.20
2019-04-04T14:00:32.150Z,34.30
2019-04-04T14:01:38.744Z,34.10
2019-04-04T14:02:45.302Z,33.40
2019-04-04T14:03:51.732Z,33.20
2019-04-04T14:05:09.168Z,32.90
2019-04-04T14:06:06.413Z,32.80
2019-04-04T14:07:12.946Z,33.20
2019-04-04T14:08:19.451Z,33.30
2019-04-04T14:09:27.332Z,34.10
2019-04-04T14:10:33.929Z,34.20
2019-04-04T14:11:41.253Z,34.20
2019-04-04T14:12:48.695Z,34.20
2019-04-04T14:13:55.567Z,34.80
2019-04-04T14:15:02.089Z,35.70
2019-04-04T14:16:08.582Z,36.20
2019-04-04T14:17:14.861Z,37.00
2019-04-04T14:18:24.553Z,37.10
2019-04-04T14:19:31.620Z,37.10